createdAt,value
2019-05-28T00:00:01.042Z,20.00
2019-05-28T00:02:18.869Z,20.00
2019-05-28T00:04:47.588Z,20.00
2019-05-28T00:07:16.379Z,19.90
2019-05-28T00:09:45.008Z,19.80
2019-05-28T00:12:13.655Z,19.90
2019-05-28T00:14:42.201Z,19.90
2019-05-28T00:17:10.997Z,19.90
2019-05-28T00:19:39.695Z,19.80
2019-05-28T00:22:08.308Z,19.80
2019-05-28T00:24:36.974Z,19.80
2019-05-28T00:27:05.764Z,19.80
2019-05-28T00:29:34.498Z,19.70
2019-05-28T00:32:03.091Z,19.70
2019-05-28T00:34:31.900Z,19.70
2019-05-28T00:37:00.533Z,19.70
2019-05-28T00:39:29.245Z,19.70
2019-05-28T00:41:58.095Z,19.60
2019-05-28T00:44:26.676Z,19.60
2019-05-28T00:46:55.641Z,19.50
2019-05-28T00:49:24.419Z,19.50
2019-05-28T00:51:53.349Z,19.40
2019-05-28T00:54:22.033Z,19.40
2019-05-28T00:56:52.023Z,19.30
2019-05-28T00:59:21.445Z,19.30
2019-05-28T01:01:50.096Z,19.40
2019-05-28T01:04:18.730Z,19.40
2019-05-28T01:06:47.561Z,19.40
2019-05-28T01:09:16.244Z,19.50
2019-05-28T01:11:44.889Z,19.50
2019-05-28T01:14:13.497Z,19.30
2019-05-28T01:16:42.137Z,19.40
2019-05-28T01:19:10.840Z,19.40
2019-05-28T01:21:42.265Z,19.40
2019-05-28T01:24:09.724Z,19.40
2019-05-28T01:26:38.454Z,19.40
2019-05-28T01:29:07.202Z,19.50
2019-05-28T01:31:35.789Z,19.50
2019-05-28T01:34:23.937Z,19.40
2019-05-28T01:36:52.636Z,19.40
2019-05-28T01:39:21.296Z,19.40
2019-05-28T01:41:49.986Z,19.30
2019-05-28T01:44:18.803Z,19.30
2019-05-28T01:46:47.382Z,19.40
2019-05-28T01:49:16.026Z,19.40
2019-05-28T01:51:44.731Z,19.40
2019-05-28T01:54:13.567Z,19.40
2019-05-28T01:56:42.364Z,19.40
2019-05-28T01:59:11.124Z,19.30
2019-05-28T02:01:39.831Z,19.40
2019-05-28T02:04:08.474Z,19.30
2019-05-28T02:06:37.275Z,19.20
2019-05-28T02:09:07.587Z,19.20
2019-05-28T02:11:36.502Z,19.20
2019-05-28T02:14:05.677Z,19.20
2019-05-28T02:16:34.387Z,19.10
2019-05-28T02:19:02.975Z,19.20
2019-05-28T02:21:31.544Z,19.20
2019-05-28T02:24:00.185Z,19.20
2019-05-28T02:26:28.864Z,19.10
2019-05-28T02:28:57.513Z,19.10
2019-05-28T02:31:28.069Z,19.10
2019-05-28T02:33:56.501Z,19.10
2019-05-28T02:36:25.082Z,19.10
2019-05-28T02:38:53.713Z,19.10
2019-05-28T02:41:22.330Z,19.10
2019-05-28T02:43:51.036Z,19.10
2019-05-28T02:46:19.618Z,19.10
2019-05-28T02:48:48.324Z,19.00
2019-05-28T02:51:19.567Z,19.00
2019-05-28T02:53:48.855Z,19.10
2019-05-28T02:56:18.716Z,19.10
2019-05-28T02:58:49.836Z,19.00
2019-05-28T03:01:21.528Z,18.90
2019-05-28T03:03:52.425Z,18.90
2019-05-28T03:06:24.122Z,18.80
2019-05-28T03:08:56.596Z,18.80
2019-05-28T03:11:26.019Z,18.90
2019-05-28T03:13:54.752Z,19.00
2019-05-28T03:16:26.426Z,18.90
2019-05-28T03:18:57.112Z,18.90
2019-05-28T03:21:27.940Z,18.90
2019-05-28T03:23:59.239Z,19.00
2019-05-28T03:26:28.504Z,19.10
2019-05-28T03:29:16.546Z,19.10
2019-05-28T03:32:06.134Z,19.00
2019-05-28T03:34:15.480Z,19.00
2019-05-28T03:36:46.266Z,18.90
2019-05-28T03:39:16.816Z,18.90
2019-05-28T03:41:45.584Z,18.90
2019-05-28T03:44:14.262Z,18.80
2019-05-28T03:46:43.025Z,18.80
2019-05-28T03:49:11.591Z,18.80
2019-05-28T03:51:40.268Z,18.90
2019-05-28T03:54:08.942Z,19.00
2019-05-28T03:56:37.543Z,19.00
2019-05-28T03:59:06.219Z,19.00
2019-05-28T04:01:34.801Z,19.00
2019-05-28T04:04:03.496Z,18.90
2019-05-28T04:06:32.206Z,18.90
2019-05-28T04:09:00.844Z,18.80
2019-05-28T04:11:43.858Z,18.90
2019-05-28T04:13:59.883Z,18.90
2019-05-28T04:16:28.613Z,18.80
2019-05-28T04:18:57.168Z,18.90
2019-05-28T04:21:25.795Z,18.90
2019-05-28T04:23:54.385Z,18.90
2019-05-28T04:26:23.272Z,18.80
2019-05-28T04:28:51.857Z,18.90
2019-05-28T04:31:20.470Z,18.80
2019-05-28T04:33:49.052Z,18.80
2019-05-28T04:36:17.655Z,18.80
2019-05-28T04:38:46.308Z,18.70
2019-05-28T04:41:14.980Z,18.60
2019-05-28T04:43:43.710Z,18.50
2019-05-28T04:46:12.357Z,18.50
2019-05-28T04:48:41.058Z,18.60
2019-05-28T04:51:09.979Z,18.60
2019-05-28T04:53:38.624Z,18.60
2019-05-28T04:56:07.415Z,18.60
2019-05-28T04:58:37.105Z,18.60
2019-05-28T05:01:05.631Z,18.60
2019-05-28T05:03:34.346Z,18.60
2019-05-28T05:06:04.281Z,18.50
2019-05-28T05:08:33.090Z,18.50
2019-05-28T05:11:01.739Z,18.50
2019-05-28T05:13:30.306Z,18.50
2019-05-28T05:15:59.024Z,18.50
2019-05-28T05:18:27.953Z,18.60
2019-05-28T05:20:56.661Z,18.60
2019-05-28T05:23:25.273Z,18.60
2019-05-28T05:25:53.876Z,18.60
2019-05-28T05:28:22.512Z,18.60
2019-05-28T05:30:51.200Z,18.60
2019-05-28T05:33:20.928Z,18.60
2019-05-28T05:35:49.930Z,18.60
2019-05-28T05:38:18.589Z,18.60
2019-05-28T05:40:47.248Z,18.60
2019-05-28T05:43:16.120Z,18.60
2019-05-28T05:45:44.784Z,18.60
2019-05-28T05:48:34.745Z,18.50
2019-05-28T05:51:03.315Z,18.60
2019-05-28T05:53:31.960Z,18.50
2019-05-28T05:56:02.463Z,18.50
2019-05-28T05:58:31.209Z,18.60
2019-05-28T06:01:00.553Z,18.50
2019-05-28T06:03:39.721Z,18.50
2019-05-28T06:05:59.518Z,18.50
2019-05-28T06:08:28.196Z,18.40
2019-05-28T06:10:57.141Z,18.30
2019-05-28T06:13:27.184Z,18.30
2019-05-28T06:15:55.877Z,18.30
2019-05-28T06:18:25.054Z,18.30
2019-05-28T06:21:07.263Z,18.30
2019-05-28T06:23:24.455Z,18.40
2019-05-28T06:25:53.259Z,18.20
2019-05-28T06:28:21.968Z,18.10
2019-05-28T06:30:50.950Z,18.10
2019-05-28T06:33:19.648Z,18.10
2019-05-28T06:35:48.280Z,18.10
2019-05-28T06:38:17.005Z,18.10
2019-05-28T06:40:45.709Z,18.20
2019-05-28T06:43:14.802Z,18.10
2019-05-28T06:45:43.439Z,18.10
2019-05-28T06:48:12.348Z,18.00
2019-05-28T06:50:41.185Z,18.00
2019-05-28T06:53:09.797Z,18.00
2019-05-28T06:55:38.426Z,18.10
2019-05-28T06:58:07.106Z,18.10
2019-05-28T07:00:35.960Z,18.20
2019-05-28T07:03:04.654Z,18.30
2019-05-28T07:05:34.310Z,18.30
2019-05-28T07:08:03.449Z,18.30
2019-05-28T07:10:32.585Z,18.20
2019-05-28T07:13:01.336Z,18.10
2019-05-28T07:15:30.582Z,18.30
2019-05-28T07:17:59.807Z,18.40
2019-05-28T07:20:30.312Z,18.50
2019-05-28T07:22:59.121Z,18.50
2019-05-28T07:25:27.760Z,18.60
2019-05-28T07:28:10.303Z,18.60
2019-05-28T07:30:26.877Z,18.70
2019-05-28T07:32:57.341Z,18.70
2019-05-28T07:35:26.191Z,18.70
2019-05-28T07:37:54.976Z,18.70
2019-05-28T07:40:31.776Z,18.70
2019-05-28T07:42:53.809Z,18.80
2019-05-28T07:45:29.995Z,18.80
2019-05-28T07:47:58.987Z,18.90
2019-05-28T07:50:27.692Z,18.90
2019-05-28T07:52:56.623Z,18.90
2019-05-28T07:55:25.281Z,18.90
2019-05-28T07:57:53.945Z,18.80
2019-05-28T08:00:37.068Z,18.80
2019-05-28T08:03:06.728Z,18.80
2019-05-28T08:05:36.392Z,18.80
2019-05-28T08:08:10.431Z,18.80
2019-05-28T08:10:40.065Z,18.80
2019-05-28T08:13:09.180Z,18.70
2019-05-28T08:15:39.807Z,18.70
2019-05-28T08:18:08.227Z,18.60
2019-05-28T08:20:36.883Z,18.70
2019-05-28T08:23:06.126Z,18.80
2019-05-28T08:25:47.017Z,18.90
2019-05-28T08:28:19.337Z,19.00
2019-05-28T08:30:37.622Z,19.10
2019-05-28T08:33:09.785Z,19.20
2019-05-28T08:35:40.955Z,19.30
2019-05-28T08:38:11.102Z,19.20
2019-05-28T08:40:44.415Z,19.20
2019-05-28T08:43:13.428Z,19.00
2019-05-28T08:45:42.867Z,18.90
2019-05-28T08:48:11.758Z,18.90
2019-05-28T08:50:41.201Z,18.80
2019-05-28T08:53:12.520Z,18.80
2019-05-28T08:55:45.853Z,18.70
2019-05-28T08:58:17.749Z,18.70
2019-05-28T09:00:49.165Z,18.70
2019-05-28T09:03:18.104Z,18.60
2019-05-28T09:05:46.765Z,18.60
2019-05-28T09:08:15.504Z,18.50
2019-05-28T09:10:44.934Z,18.50
2019-05-28T09:13:15.446Z,18.50
2019-05-28T09:15:44.399Z,18.50
2019-05-28T09:18:13.981Z,18.50
2019-05-28T09:20:46.387Z,18.60
2019-05-28T09:23:14.998Z,18.50
2019-05-28T09:25:43.732Z,18.50
2019-05-28T09:28:28.451Z,18.60
2019-05-28T09:30:42.969Z,18.60
2019-05-28T09:33:13.526Z,18.50
2019-05-28T09:38:32.745Z,18.60
2019-05-28T09:41:05.702Z,18.70
2019-05-28T09:43:34.316Z,18.70
2019-05-28T09:46:03.555Z,18.80
2019-05-28T09:48:34.503Z,18.80
2019-05-28T09:51:03.292Z,18.90
2019-05-28T09:53:34.785Z,19.00
2019-05-28T09:56:02.559Z,19.00
2019-05-28T09:58:31.286Z,19.00
2019-05-28T10:01:00.453Z,18.90
2019-05-28T10:03:29.040Z,18.80
2019-05-28T10:06:13.386Z,18.80
2019-05-28T10:08:27.981Z,18.80
2019-05-28T10:10:57.628Z,18.90
2019-05-28T10:13:38.212Z,18.90
2019-05-28T10:15:56.628Z,18.80
2019-05-28T10:18:28.371Z,18.80
2019-05-28T10:21:14.578Z,18.90
2019-05-28T10:23:30.144Z,18.90
2019-05-28T10:26:18.864Z,19.00
2019-05-28T10:28:50.457Z,19.00
2019-05-28T10:31:17.953Z,19.10
2019-05-28T10:33:47.788Z,19.10
2019-05-28T10:36:32.184Z,19.10
2019-05-28T10:38:46.796Z,19.10
2019-05-28T10:41:15.529Z,19.10
2019-05-28T10:43:44.086Z,19.20
2019-05-28T10:46:13.015Z,19.10
2019-05-28T10:48:41.825Z,19.20
2019-05-28T10:51:10.450Z,19.10
2019-05-28T10:53:39.172Z,19.10
2019-05-28T10:56:08.037Z,19.10
2019-05-28T10:58:36.688Z,19.10
2019-05-28T11:01:05.548Z,19.00
2019-05-28T11:03:34.256Z,19.00
2019-05-28T11:06:02.942Z,19.00
2019-05-28T11:08:31.734Z,19.10
2019-05-28T11:11:01.543Z,19.10
2019-05-28T11:13:31.299Z,19.10
2019-05-28T11:16:00.658Z,19.10
2019-05-28T11:18:29.943Z,19.20
2019-05-28T11:20:58.759Z,19.20
2019-05-28T11:23:27.720Z,19.20
2019-05-28T11:25:56.895Z,19.30
2019-05-28T11:28:25.877Z,19.30
2019-05-28T11:30:54.491Z,19.30
2019-05-28T11:33:25.194Z,19.20
2019-05-28T11:35:53.940Z,19.20
2019-05-28T11:38:23.148Z,19.20
2019-05-28T11:40:51.827Z,19.10
2019-05-28T11:43:20.493Z,19.20
2019-05-28T11:45:49.177Z,19.20
2019-05-28T11:48:18.863Z,19.30
2019-05-28T11:50:47.705Z,19.30
2019-05-28T11:53:16.618Z,19.30
2019-05-28T11:55:45.973Z,19.30
2019-05-28T11:58:14.622Z,19.30
2019-05-28T12:00:43.641Z,19.30
2019-05-28T12:03:12.342Z,19.30
2019-05-28T12:05:41.076Z,19.30
2019-05-28T12:08:10.078Z,19.30
2019-05-28T12:10:38.780Z,19.20
2019-05-28T12:13:10.756Z,19.30
2019-05-28T12:15:38.044Z,19.30
2019-05-28T12:18:07.692Z,19.30
2019-05-28T12:20:37.041Z,19.40
2019-05-28T12:23:11.087Z,19.40
2019-05-28T12:25:38.031Z,19.40
2019-05-28T12:28:06.735Z,19.40
2019-05-28T12:30:35.526Z,19.40
2019-05-28T12:33:04.916Z,19.40
2019-05-28T12:35:33.626Z,19.30
2019-05-28T12:38:02.390Z,19.20
2019-05-28T12:40:46.187Z,19.20
2019-05-28T12:43:01.699Z,19.30
2019-05-28T12:45:35.501Z,19.40
2019-05-28T12:48:12.520Z,19.40
2019-05-28T12:50:31.126Z,19.40
2019-05-28T12:52:59.921Z,19.40
2019-05-28T12:55:28.633Z,19.50
2019-05-28T12:57:57.325Z,19.50
2019-05-28T13:00:27.135Z,19.50
2019-05-28T13:02:55.733Z,19.50
2019-05-28T13:05:27.465Z,19.50
2019-05-28T13:08:08.720Z,19.50
2019-05-28T13:10:26.682Z,19.40
2019-05-28T13:12:55.419Z,19.40
2019-05-28T13:15:24.214Z,19.50
2019-05-28T13:17:52.986Z,19.50
2019-05-28T13:20:23.442Z,19.50
2019-05-28T13:22:52.098Z,19.50
2019-05-28T13:25:20.816Z,19.60
2019-05-28T13:27:49.472Z,19.60
2019-05-28T13:30:19.036Z,19.60
2019-05-28T13:32:47.977Z,19.60
2019-05-28T13:35:18.971Z,19.70
2019-05-28T13:37:47.801Z,19.70
2019-05-28T13:40:17.669Z,19.70
2019-05-28T13:42:46.504Z,19.80
2019-05-28T13:45:15.759Z,19.70
2019-05-28T13:47:44.627Z,19.70
2019-05-28T13:50:14.458Z,19.70
2019-05-28T13:52:43.226Z,19.80
2019-05-28T13:55:14.437Z,19.80
2019-05-28T13:57:43.396Z,19.90
2019-05-28T14:00:20.958Z,19.90
2019-05-28T14:02:49.820Z,20.00
2019-05-28T14:05:19.333Z,20.00
2019-05-28T14:07:48.129Z,20.00
2019-05-28T14:10:17.772Z,20.10
2019-05-28T14:12:46.689Z,20.20
2019-05-28T14:15:16.962Z,20.20
2019-05-28T14:17:45.882Z,20.10
2019-05-28T14:20:15.996Z,20.20
2019-05-28T14:22:46.417Z,20.30
2019-05-28T14:25:16.329Z,20.20
2019-05-28T14:27:45.077Z,20.20
2019-05-28T14:30:19.477Z,20.20
2019-05-28T14:32:49.682Z,20.30
2019-05-28T14:35:18.672Z,20.30
2019-05-28T14:37:47.359Z,20.40
2019-05-28T14:40:16.636Z,20.40
2019-05-28T14:42:45.286Z,20.50
2019-05-28T14:45:16.281Z,20.60
2019-05-28T14:47:45.070Z,20.70
2019-05-28T14:50:14.402Z,20.70
2019-05-28T14:52:43.035Z,20.70
2019-05-28T14:55:13.962Z,20.70
2019-05-28T14:57:42.929Z,20.70
2019-05-28T15:00:13.969Z,20.70
2019-05-28T15:02:44.036Z,20.70
2019-05-28T15:05:13.733Z,20.70
2019-05-28T15:07:42.539Z,20.70
2019-05-28T15:10:13.851Z,20.70
2019-05-28T15:12:42.919Z,20.60
2019-05-28T15:15:35.805Z,20.60
2019-05-28T15:18:01.239Z,20.50
2019-05-28T15:20:31.428Z,20.40
2019-05-28T15:23:00.087Z,20.40
2019-05-28T15:25:28.945Z,20.30
2019-05-28T15:27:57.552Z,20.30
2019-05-28T15:30:26.574Z,20.30
2019-05-28T15:32:55.242Z,20.30
2019-05-28T15:35:23.971Z,20.40
2019-05-28T15:37:54.057Z,20.50
2019-05-28T15:40:23.006Z,20.40
2019-05-28T15:43:11.589Z,20.40
2019-05-28T15:45:42.048Z,20.50
2019-05-28T15:48:10.912Z,20.50
2019-05-28T15:50:41.130Z,20.50
2019-05-28T15:53:29.209Z,20.50
2019-05-28T15:55:58.235Z,20.50
2019-05-28T15:58:28.860Z,20.50
2019-05-28T16:00:57.384Z,20.50
2019-05-28T16:03:27.642Z,20.50
2019-05-28T16:05:57.905Z,20.40
2019-05-28T16:08:26.518Z,20.50
2019-05-28T16:10:55.505Z,20.30
2019-05-28T16:13:24.213Z,20.30
2019-05-28T16:15:53.361Z,20.20
2019-05-28T16:18:23.241Z,20.20
2019-05-28T16:20:51.947Z,20.20
2019-05-28T16:23:20.751Z,20.20
2019-05-28T16:25:49.817Z,20.10
2019-05-28T16:28:19.612Z,20.10
2019-05-28T16:30:48.135Z,20.10
2019-05-28T16:33:18.597Z,20.10
2019-05-28T16:35:47.557Z,20.10
2019-05-28T16:38:16.352Z,20.00
2019-05-28T16:40:45.952Z,20.00
2019-05-28T16:43:14.779Z,20.00
2019-05-28T16:45:44.460Z,19.90
2019-05-28T16:48:13.132Z,19.80
2019-05-28T16:50:41.985Z,19.90
2019-05-28T16:53:11.648Z,19.90
2019-05-28T16:55:42.056Z,19.90
2019-05-28T16:58:10.545Z,19.80
2019-05-28T17:00:39.350Z,19.90
2019-05-28T17:03:08.130Z,19.90
2019-05-28T17:05:36.826Z,19.90
2019-05-28T17:08:05.716Z,19.90
2019-05-28T17:10:34.493Z,19.90
2019-05-28T17:13:03.338Z,19.90
2019-05-28T17:15:32.413Z,19.90
2019-05-28T17:18:01.330Z,19.90
2019-05-28T17:20:30.089Z,19.80
2019-05-28T17:22:58.650Z,19.80
2019-05-28T17:25:27.396Z,19.80
2019-05-28T17:27:56.260Z,19.80
2019-05-28T17:30:24.961Z,19.80
2019-05-28T17:32:53.583Z,19.80
2019-05-28T17:35:22.286Z,19.80
2019-05-28T17:37:51.191Z,19.70
2019-05-28T17:40:22.889Z,19.80
2019-05-28T17:42:50.328Z,19.90
2019-05-28T17:45:19.796Z,19.90
2019-05-28T17:48:02.930Z,19.80
2019-05-28T17:50:32.755Z,19.90
2019-05-28T17:53:21.419Z,19.80
2019-05-28T17:55:49.974Z,19.70
2019-05-28T17:58:19.180Z,19.70
2019-05-28T18:00:48.019Z,19.80
2019-05-28T18:03:16.768Z,19.70
2019-05-28T18:05:45.917Z,19.70
2019-05-28T18:08:14.569Z,19.70
2019-05-28T18:10:43.398Z,19.60
2019-05-28T18:13:31.405Z,19.60
2019-05-28T18:16:00.095Z,19.60
2019-05-28T18:18:28.729Z,19.50
2019-05-28T18:20:57.843Z,19.50
2019-05-28T18:23:27.819Z,19.40
2019-05-28T18:25:56.663Z,19.40
2019-05-28T18:28:25.745Z,19.40
2019-05-28T18:30:57.285Z,19.40
2019-05-28T18:33:24.561Z,19.30
2019-05-28T18:35:53.450Z,19.30
2019-05-28T18:38:22.161Z,19.30
2019-05-28T18:40:50.916Z,19.30
2019-05-28T18:43:21.208Z,19.30
2019-05-28T18:46:09.189Z,19.30
2019-05-28T18:48:38.385Z,19.20
2019-05-28T18:51:09.091Z,19.20
2019-05-28T18:53:37.709Z,19.20
2019-05-28T18:56:17.223Z,19.30
2019-05-28T18:58:38.372Z,19.30
2019-05-28T19:01:07.205Z,19.30
2019-05-28T19:03:35.884Z,19.30
2019-05-28T19:06:04.571Z,19.30
2019-05-28T19:08:33.606Z,19.30
2019-05-28T19:11:04.133Z,19.20
2019-05-28T19:13:36.096Z,19.10
2019-05-28T19:16:04.898Z,19.00
2019-05-28T19:18:34.186Z,18.90
2019-05-28T19:21:03.003Z,18.90
2019-05-28T19:23:33.613Z,18.90
2019-05-28T19:26:02.551Z,18.90
2019-05-28T19:28:31.226Z,18.80
2019-05-28T19:31:00.358Z,18.80
2019-05-28T19:33:48.594Z,18.70
2019-05-28T19:36:18.539Z,18.70
2019-05-28T19:39:06.913Z,18.70
2019-05-28T19:41:35.580Z,18.60
2019-05-28T19:44:04.551Z,18.50
2019-05-28T19:46:35.006Z,18.50
2019-05-28T19:49:03.833Z,18.40
2019-05-28T19:51:51.931Z,18.40
2019-05-28T19:54:23.211Z,18.40
2019-05-28T19:56:51.812Z,18.40
2019-05-28T19:59:20.602Z,18.30
2019-05-28T20:01:49.339Z,18.30
2019-05-28T20:04:37.380Z,18.30
2019-05-28T20:07:06.052Z,18.20
2019-05-28T20:09:34.807Z,18.30
2019-05-28T20:12:12.310Z,18.30
2019-05-28T20:14:34.235Z,18.30
2019-05-28T20:17:02.858Z,18.30
2019-05-28T20:19:31.609Z,18.20
2019-05-28T20:22:02.473Z,18.20
2019-05-28T20:24:31.605Z,18.20
2019-05-28T20:27:00.276Z,18.10
2019-05-28T20:29:28.879Z,18.10
2019-05-28T20:31:57.405Z,18.10
2019-05-28T20:34:25.974Z,18.10
2019-05-28T20:37:13.911Z,17.90
2019-05-28T20:39:42.626Z,17.80
2019-05-28T20:42:26.123Z,17.70
2019-05-28T20:44:41.583Z,17.80
2019-05-28T20:47:11.019Z,17.80
2019-05-28T20:49:39.981Z,17.80
2019-05-28T20:52:09.179Z,17.70
2019-05-28T20:54:57.343Z,17.60
2019-05-28T20:57:25.903Z,17.60
2019-05-28T20:59:55.778Z,17.60
2019-05-28T21:02:24.511Z,17.60
2019-05-28T21:04:53.097Z,17.60
2019-05-28T21:07:21.780Z,17.60
2019-05-28T21:09:50.373Z,17.60
2019-05-28T21:12:18.965Z,17.50
2019-05-28T21:14:48.631Z,17.50
2019-05-28T21:17:17.411Z,17.40
2019-05-28T21:19:46.309Z,17.40
2019-05-28T21:22:26.257Z,17.50
2019-05-28T21:24:45.063Z,17.50
2019-05-28T21:27:13.881Z,17.30
2019-05-28T21:29:42.398Z,17.30
2019-05-28T21:32:11.052Z,17.40
2019-05-28T21:34:39.920Z,17.40
2019-05-28T21:37:08.669Z,17.30
2019-05-28T21:39:37.317Z,17.30
2019-05-28T21:42:06.009Z,17.30
2019-05-28T21:44:34.614Z,17.30
2019-05-28T21:47:03.550Z,17.30
2019-05-28T21:49:32.103Z,17.30
2019-05-28T21:52:01.057Z,17.30
2019-05-28T21:54:29.871Z,17.30
2019-05-28T21:56:59.411Z,17.30
2019-05-28T21:59:28.456Z,17.30
2019-05-28T22:01:58.167Z,17.30
2019-05-28T22:04:27.836Z,17.30
2019-05-28T22:06:57.292Z,17.30
2019-05-28T22:09:25.933Z,17.30
2019-05-28T22:11:55.568Z,17.30
2019-05-28T22:14:25.947Z,17.30
2019-05-28T22:16:54.518Z,17.30
2019-05-28T22:19:23.180Z,17.30
2019-05-28T22:21:51.719Z,17.30
2019-05-28T22:24:20.308Z,17.40
2019-05-28T22:26:48.853Z,17.40
2019-05-28T22:29:17.654Z,17.40
2019-05-28T22:31:46.362Z,17.30
2019-05-28T22:34:15.115Z,17.20
2019-05-28T22:36:43.673Z,17.30
2019-05-28T22:39:12.211Z,17.50
2019-05-28T22:41:41.910Z,17.50
2019-05-28T22:44:10.475Z,17.60
2019-05-28T22:46:39.099Z,17.40
2019-05-28T22:49:07.769Z,17.20
2019-05-28T22:51:36.317Z,17.30
2019-05-28T22:54:06.169Z,17.30
2019-05-28T22:56:35.073Z,17.20
2019-05-28T22:59:04.466Z,17.30
2019-05-28T23:01:33.604Z,17.40
2019-05-28T23:04:03.061Z,17.40
2019-05-28T23:06:31.832Z,17.30
2019-05-28T23:09:01.419Z,17.30
2019-05-28T23:11:49.734Z,17.20
2019-05-28T23:14:18.285Z,17.10
2019-05-28T23:16:47.003Z,17.20
2019-05-28T23:19:15.609Z,17.20
2019-05-28T23:21:44.206Z,17.20
2019-05-28T23:24:12.740Z,17.10
2019-05-28T23:26:41.336Z,17.10
2019-05-28T23:29:10.253Z,17.00
2019-05-28T23:31:38.863Z,17.00
2019-05-28T23:34:08.393Z,16.90
2019-05-28T23:36:37.129Z,17.00
2019-05-28T23:39:07.017Z,17.00
2019-05-28T23:41:35.652Z,17.00
2019-05-28T23:44:05.807Z,16.90
2019-05-28T23:46:34.488Z,16.90
2019-05-28T23:49:04.110Z,16.80
2019-05-28T23:51:32.901Z,16.80
2019-05-28T23:54:01.414Z,16.90
2019-05-28T23:56:29.960Z,17.00
2019-05-28T23:58:58.630Z,17.00
